Time;durP1;ratioP1;P1;durP2;ratioP2;P2;SDS_P1;SDS_P2;PMS_P1;PMS_P2;Temp;Humidity;BMP_temperature;BMP_pressure;BME280_temperature;BME280_humidity;BME280_pressure;Samples;Min_cycle;Max_cycle;Signal;HPM_P1;HPM_P2
2022/05/07 00:00:54;;;;;;;0.30;0.20;;;12.80;99.90;;;;;;5074263;28;20504;-93
2022/05/07 00:03:22;;;;;;;0.30;0.13;;;12.70;99.90;;;;;;5073123;28;20544;-92
2022/05/07 00:05:49;;;;;;;0.40;0.30;;;12.70;99.90;;;;;;5075896;28;20535;-92
2022/05/07 00:08:16;;;;;;;0.30;0.10;;;12.70;99.90;;;;;;5076143;28;20450;-94
2022/05/07 00:10:44;;;;;;;0.30;0.20;;;12.70;99.90;;;;;;5074675;28;20455;-93
2022/05/07 00:13:11;;;;;;;0.30;0.20;;;12.60;99.90;;;;;;5066540;28;20467;-93
2022/05/07 00:15:38;;;;;;;0.30;0.10;;;12.60;99.90;;;;;;5068168;28;20471;-92
2022/05/07 00:18:05;;;;;;;0.30;0.17;;;12.50;99.90;;;;;;5066688;28;20769;-93
2022/05/07 00:20:35;;;;;;;0.30;0.20;;;12.50;99.90;;;;;;5071425;28;21042;-93
2022/05/07 00:23:02;;;;;;;0.30;0.20;;;12.50;99.90;;;;;;5066377;28;20543;-93
2022/05/07 00:25:30;;;;;;;0.30;0.20;;;12.50;99.90;;;;;;5085051;28;20452;-92
2022/05/07 00:27:57;;;;;;;0.30;0.13;;;12.50;99.90;;;;;;5091618;28;20508;-93
2022/05/07 00:30:24;;;;;;;0.30;0.20;;;12.50;99.90;;;;;;5089670;28;20447;-93
2022/05/07 00:32:51;;;;;;;0.30;0.10;;;12.50;99.90;;;;;;5093603;28;20460;-92
2022/05/07 00:35:18;;;;;;;0.30;0.20;;;12.50;99.90;;;;;;5100588;28;20438;-93
2022/05/07 00:37:47;;;;;;;0.40;0.20;;;12.60;99.90;;;;;;5091351;28;20837;-93
2022/05/07 00:40:14;;;;;;;0.30;0.20;;;12.50;99.90;;;;;;5095063;28;20925;-93
2022/05/07 00:42:41;;;;;;;0.30;0.10;;;12.50;99.90;;;;;;5078029;28;20450;-93
2022/05/07 00:45:09;;;;;;;0.30;0.10;;;12.50;99.90;;;;;;5074327;28;20489;-93
2022/05/07 00:47:38;;;;;;;0.30;0.20;;;12.50;99.90;;;;;;5073556;28;20530;-92
2022/05/07 00:52:53;;;;;;;0.67;0.63;;;12.40;99.90;;;;;;5067325;28;20951;-93
2022/05/07 00:55:21;;;;;;;0.30;0.20;;;12.50;99.90;;;;;;5073697;28;20976;-93
2022/05/07 00:57:48;;;;;;;0.30;0.20;;;12.40;99.90;;;;;;5068108;28;20443;-94
2022/05/07 01:00:16;;;;;;;0.30;0.10;;;12.40;99.90;;;;;;5072827;28;20457;-93
2022/05/07 01:02:43;;;;;;;0.30;0.20;;;12.40;99.90;;;;;;5070508;28;20457;-93
2022/05/07 01:05:11;;;;;;;0.30;0.20;;;12.40;99.90;;;;;;5071999;28;20502;-94
2022/05/07 01:07:38;;;;;;;0.30;0.20;;;12.40;99.90;;;;;;5072008;28;20472;-93
2022/05/07 01:10:07;;;;;;;0.30;0.20;;;12.40;99.90;;;;;;5069930;28;20465;-93
2022/05/07 01:12:36;;;;;;;0.30;0.20;;;12.40;99.90;;;;;;5070767;28;20712;-93
2022/05/07 01:15:04;;;;;;;0.30;0.10;;;12.40;99.90;;;;;;5065923;28;20522;-93
2022/05/07 01:17:33;;;;;;;0.30;0.20;;;12.50;99.90;;;;;;5067647;28;20462;-92
2022/05/07 01:20:00;;;;;;;0.30;0.13;;;12.40;99.90;;;;;;5066844;28;20542;-93
2022/05/07 01:22:30;;;;;;;0.30;0.10;;;12.40;99.90;;;;;;5069364;28;20528;-93
2022/05/07 01:24:57;;;;;;;0.30;0.20;;;12.40;99.90;;;;;;5070395;28;20486;-93
2022/05/07 01:27:24;;;;;;;0.30;0.20;;;12.40;99.90;;;;;;5069403;28;20530;-93
2022/05/07 01:29:51;;;;;;;0.30;0.20;;;12.40;99.90;;;;;;5068401;28;20439;-93
2022/05/07 01:32:18;;;;;;;0.30;0.20;;;12.40;99.90;;;;;;5070860;28;20503;-94
2022/05/07 01:34:45;;;;;;;0.30;0.17;;;12.30;99.90;;;;;;5066146;28;20477;-92
2022/05/07 01:37:12;;;;;;;0.30;0.20;;;12.30;99.90;;;;;;5065250;28;21039;-93
2022/05/07 01:39:41;;;;;;;0.30;0.20;;;12.30;99.90;;;;;;5069307;28;20972;-92
2022/05/07 01:42:08;;;;;;;0.30;0.20;;;12.30;99.90;;;;;;5066553;28;20466;-93
2022/05/07 01:44:35;;;;;;;0.30;0.20;;;12.30;99.90;;;;;;5073099;28;20481;-93
2022/05/07 01:49:47;;;;;;;0.30;0.20;;;12.20;99.90;;;;;;5104402;28;20502;-93
2022/05/07 01:52:14;;;;;;;0.30;0.10;;;12.30;99.90;;;;;;5103985;28;20514;-92
2022/05/07 01:54:43;;;;;;;0.30;0.10;;;12.20;99.90;;;;;;5102602;28;20466;-92
2022/05/07 01:57:10;;;;;;;0.30;0.20;;;12.20;99.90;;;;;;5092042;28;20497;-92
2022/05/07 01:59:37;;;;;;;0.30;0.20;;;12.20;99.90;;;;;;5097034;28;20447;-93
2022/05/07 02:02:05;;;;;;;0.30;0.20;;;12.20;99.90;;;;;;5082030;28;20526;-92
2022/05/07 02:04:33;;;;;;;0.30;0.20;;;12.20;99.90;;;;;;5070743;28;21074;-93
2022/05/07 02:06:59;;;;;;;0.30;0.20;;;12.10;99.90;;;;;;5070223;28;20457;-93
2022/05/07 02:09:26;;;;;;;0.30;0.10;;;12.10;99.90;;;;;;5076298;28;20533;-93
2022/05/07 02:11:55;;;;;;;0.30;0.20;;;12.20;99.90;;;;;;5072358;28;21167;-92
2022/05/07 02:14:22;;;;;;;0.30;0.17;;;12.20;99.90;;;;;;5066571;28;20445;-93
2022/05/07 02:16:49;;;;;;;0.30;0.10;;;12.20;99.90;;;;;;5070975;28;20467;-93
2022/05/07 02:19:16;;;;;;;0.30;0.10;;;12.10;99.90;;;;;;5066096;28;20490;-93
2022/05/07 02:21:43;;;;;;;0.30;0.20;;;12.10;99.90;;;;;;5070164;28;21163;-93
2022/05/07 02:24:11;;;;;;;0.30;0.20;;;12.20;99.90;;;;;;5069030;28;20496;-93
2022/05/07 02:26:38;;;;;;;0.30;0.10;;;12.20;99.90;;;;;;5073725;28;20499;-93
2022/05/07 02:29:07;;;;;;;0.30;0.10;;;12.10;99.90;;;;;;5066448;28;20451;-93
2022/05/07 02:31:34;;;;;;;0.30;0.10;;;12.10;99.90;;;;;;5065898;28;20514;-93
2022/05/07 02:34:00;;;;;;;0.30;0.20;;;12.10;99.90;;;;;;5065298;28;20464;-93
2022/05/07 02:36:27;;;;;;;0.30;0.20;;;12.10;99.90;;;;;;5065708;28;20494;-93
2022/05/07 02:38:54;;;;;;;0.30;0.20;;;12.00;99.90;;;;;;5070802;28;20473;-93
2022/05/07 02:44:22;;;;;;;0.30;0.10;;;12.00;99.90;;;;;;4986112;28;20592;-93
2022/05/07 02:46:49;;;;;;;0.30;0.10;;;12.00;99.90;;;;;;4985303;28;20486;-92
2022/05/07 02:49:16;;;;;;;0.30;0.20;;;12.00;99.90;;;;;;5018412;28;20466;-94
2022/05/07 02:51:43;;;;;;;0.30;0.10;;;12.10;99.90;;;;;;5067434;28;20526;-93
2022/05/07 02:54:10;;;;;;;0.30;0.10;;;12.10;99.90;;;;;;5082978;28;20946;-92
2022/05/07 02:56:37;;;;;;;0.30;0.20;;;12.00;99.90;;;;;;5066573;28;20494;-93
2022/05/07 02:59:04;;;;;;;0.30;0.13;;;12.10;99.90;;;;;;5066884;28;20465;-93
2022/05/07 03:01:32;;;;;;;0.30;0.20;;;12.00;99.90;;;;;;5065364;28;20462;-93
2022/05/07 03:03:59;;;;;;;0.30;0.10;;;11.90;99.90;;;;;;5066716;28;20467;-94
2022/05/07 03:06:26;;;;;;;0.30;0.20;;;12.00;99.90;;;;;;5073307;28;20566;-93
2022/05/07 03:08:54;;;;;;;0.30;0.20;;;12.00;99.90;;;;;;5094009;28;20471;-92
2022/05/07 03:11:21;;;;;;;0.30;0.10;;;12.00;99.90;;;;;;5093095;28;20426;-93
2022/05/07 03:13:48;;;;;;;0.30;0.20;;;12.00;99.90;;;;;;5094539;28;20472;-92
2022/05/07 03:16:15;;;;;;;0.30;0.10;;;12.00;99.90;;;;;;5101855;28;20451;-93
2022/05/07 03:18:43;;;;;;;0.30;0.10;;;12.00;99.90;;;;;;5105596;28;20433;-92
2022/05/07 03:21:10;;;;;;;0.30;0.10;;;12.00;99.90;;;;;;5081634;28;20449;-94
2022/05/07 03:23:37;;;;;;;0.30;0.10;;;11.90;99.90;;;;;;5077202;28;20549;-94
2022/05/07 03:26:05;;;;;;;0.30;0.20;;;12.00;99.90;;;;;;5080725;28;20901;-94
2022/05/07 03:28:32;;;;;;;0.30;0.10;;;11.90;99.90;;;;;;5078140;28;20458;-93
2022/05/07 03:31:00;;;;;;;0.30;0.20;;;12.00;99.90;;;;;;5074738;28;20521;-92
2022/05/07 03:33:27;;;;;;;0.30;0.20;;;12.00;99.90;;;;;;5071730;28;20462;-93
2022/05/07 03:35:55;;;;;;;0.30;0.20;;;11.90;99.90;;;;;;5077163;28;20465;-93
2022/05/07 03:38:22;;;;;;;0.30;0.20;;;12.00;99.90;;;;;;5073626;28;20466;-93
2022/05/07 03:40:49;;;;;;;0.30;0.20;;;12.00;99.90;;;;;;5071152;28;20461;-93
2022/05/07 03:43:17;;;;;;;0.30;0.10;;;11.90;99.90;;;;;;5066517;28;20508;-93
2022/05/07 03:45:44;;;;;;;0.30;0.10;;;11.90;99.90;;;;;;5072895;28;20553;-93
2022/05/07 03:48:11;;;;;;;0.30;0.10;;;12.00;99.90;;;;;;5070677;28;20452;-93
2022/05/07 03:50:38;;;;;;;0.30;0.20;;;12.00;99.90;;;;;;5069994;28;20522;-93
2022/05/07 03:55:51;;;;;;;0.30;0.20;;;12.00;99.90;;;;;;5071383;28;20548;-93
2022/05/07 03:58:18;;;;;;;0.30;0.20;;;12.00;99.90;;;;;;5069338;28;20456;-92
2022/05/07 04:00:45;;;;;;;0.30;0.20;;;12.00;99.90;;;;;;5069800;28;20546;-93
2022/05/07 04:03:13;;;;;;;0.30;0.10;;;12.00;99.90;;;;;;5066077;28;20464;-93
2022/05/07 04:05:40;;;;;;;0.30;0.20;;;12.10;99.90;;;;;;5068507;28;20534;-93
2022/05/07 04:08:09;;;;;;;0.30;0.10;;;12.00;99.90;;;;;;5067303;28;20517;-93
2022/05/07 04:10:36;;;;;;;0.30;0.10;;;12.10;99.90;;;;;;5073027;28;20526;-94
2022/05/07 04:13:03;;;;;;;0.30;0.20;;;12.10;99.90;;;;;;5074396;28;20475;-93
2022/05/07 04:15:31;;;;;;;0.30;0.20;;;12.10;99.90;;;;;;5068951;28;20469;-93
2022/05/07 04:17:58;;;;;;;0.30;0.10;;;12.10;99.90;;;;;;5080574;28;20469;-93
2022/05/07 04:20:25;;;;;;;0.30;0.10;;;12.10;99.90;;;;;;5081578;28;20440;-93
2022/05/07 04:22:52;;;;;;;0.30;0.20;;;12.10;99.90;;;;;;5082881;28;20487;-93
2022/05/07 04:25:21;;;;;;;0.30;0.20;;;12.00;99.90;;;;;;5083107;28;20481;-93
2022/05/07 04:27:49;;;;;;;0.30;0.20;;;12.10;99.90;;;;;;5088243;28;20455;-92
2022/05/07 04:30:16;;;;;;;0.30;0.20;;;12.10;99.90;;;;;;5089157;28;21122;-93
2022/05/07 04:32:43;;;;;;;0.30;0.17;;;12.10;99.90;;;;;;5067972;28;20554;-93
2022/05/07 04:35:10;;;;;;;0.30;0.20;;;12.10;99.90;;;;;;5065493;28;20916;-93
2022/05/07 04:37:38;;;;;;;0.30;0.20;;;12.10;99.90;;;;;;5070928;28;20895;-93
2022/05/07 04:40:06;;;;;;;0.30;0.20;;;12.10;99.90;;;;;;5065779;28;20465;-93
2022/05/07 04:42:34;;;;;;;0.30;0.20;;;12.10;99.90;;;;;;5069944;28;20525;-93
2022/05/07 04:45:01;;;;;;;0.30;0.20;;;12.20;99.90;;;;;;5077300;28;21117;-93
2022/05/07 04:47:28;;;;;;;0.30;0.17;;;12.20;99.90;;;;;;5071596;28;20511;-93
2022/05/07 04:49:55;;;;;;;0.30;0.20;;;12.20;99.90;;;;;;5069885;28;20523;-93
2022/05/07 04:52:23;;;;;;;0.30;0.20;;;12.10;99.90;;;;;;5074738;28;20474;-93
2022/05/07 04:54:50;;;;;;;0.30;0.20;;;12.20;99.90;;;;;;5082656;28;20848;-93
2022/05/07 04:57:17;;;;;;;0.30;0.20;;;12.20;99.90;;;;;;5076623;28;20476;-93
2022/05/07 04:59:45;;;;;;;0.30;0.20;;;12.20;99.90;;;;;;5077822;28;20527;-92
2022/05/07 05:02:12;;;;;;;0.30;0.20;;;12.30;99.90;;;;;;5073390;28;20516;-93
2022/05/07 05:04:39;;;;;;;0.30;0.20;;;12.20;99.90;;;;;;5067566;28;20917;-92
2022/05/07 05:07:06;;;;;;;0.30;0.10;;;12.20;99.90;;;;;;5067073;28;20589;-93
2022/05/07 05:09:33;;;;;;;0.30;0.10;;;12.20;99.90;;;;;;5067281;28;20513;-93
2022/05/07 05:12:00;;;;;;;0.30;0.20;;;12.20;99.90;;;;;;5065432;28;20543;-92
2022/05/07 05:17:13;;;;;;;0.30;0.10;;;12.30;99.90;;;;;;5086428;28;20440;-93
2022/05/07 05:19:40;;;;;;;0.30;0.10;;;12.30;99.90;;;;;;5088043;28;20537;-93
2022/05/07 05:22:07;;;;;;;0.30;0.10;;;12.30;99.90;;;;;;5068354;28;20582;-93
2022/05/07 05:24:34;;;;;;;0.30;0.10;;;12.20;99.90;;;;;;5070574;28;20480;-93
2022/05/07 05:27:01;;;;;;;0.30;0.10;;;12.20;99.90;;;;;;5076192;28;21039;-94
2022/05/07 05:29:28;;;;;;;0.30;0.20;;;12.20;99.90;;;;;;5066024;28;20473;-93
2022/05/07 05:31:55;;;;;;;0.30;0.10;;;12.30;99.90;;;;;;5073596;28;20952;-93
2022/05/07 05:34:24;;;;;;;0.30;0.20;;;12.40;99.90;;;;;;5065328;28;20472;-93
2022/05/07 05:36:51;;;;;;;0.30;0.20;;;12.40;99.90;;;;;;5084938;28;20453;-94
2022/05/07 05:39:17;;;;;;;0.30;0.20;;;12.30;99.90;;;;;;5088344;28;20487;-90
2022/05/07 05:41:45;;;;;;;0.30;0.10;;;12.40;99.90;;;;;;5097945;28;20460;-91
2022/05/07 05:44:11;;;;;;;0.30;0.20;;;12.40;99.90;;;;;;5082371;28;21022;-92
2022/05/07 05:46:39;;;;;;;0.30;0.10;;;12.30;99.90;;;;;;5079230;28;20563;-91
2022/05/07 05:49:06;;;;;;;0.30;0.13;;;12.30;99.90;;;;;;5085770;28;20457;-91
2022/05/07 05:51:35;;;;;;;0.30;0.20;;;12.30;99.90;;;;;;5074880;28;20450;-92
2022/05/07 05:54:02;;;;;;;0.30;0.20;;;12.30;99.90;;;;;;5078115;28;20450;-92
2022/05/07 05:56:29;;;;;;;0.30;0.13;;;12.30;99.90;;;;;;5099708;28;20501;-92
2022/05/07 05:58:57;;;;;;;0.30;0.20;;;12.30;99.90;;;;;;5094048;28;20464;-92
2022/05/07 06:01:23;;;;;;;0.30;0.20;;;12.30;99.90;;;;;;5096321;28;20465;-92
2022/05/07 06:03:50;;;;;;;0.30;0.10;;;12.30;99.90;;;;;;5089787;28;20464;-91
2022/05/07 06:06:17;;;;;;;0.30;0.10;;;12.30;99.90;;;;;;5066214;28;20488;-91
2022/05/07 06:08:46;;;;;;;0.30;0.13;;;12.20;99.90;;;;;;5069048;28;20906;-93
2022/05/07 06:11:13;;;;;;;0.30;0.10;;;12.20;99.90;;;;;;5072595;28;20470;-93
2022/05/07 06:13:43;;;;;;;0.30;0.10;;;12.20;99.90;;;;;;5071611;28;20940;-93
2022/05/07 06:16:10;;;;;;;0.30;0.10;;;12.20;99.90;;;;;;5066893;28;20897;-93
2022/05/07 06:18:37;;;;;;;0.30;0.20;;;12.20;99.90;;;;;;5067595;28;20441;-93
2022/05/07 06:21:04;;;;;;;0.30;0.20;;;12.20;99.90;;;;;;5067711;28;20463;-93
2022/05/07 06:23:31;;;;;;;0.30;0.20;;;12.20;99.90;;;;;;5068781;28;20545;-92
2022/05/07 06:28:43;;;;;;;0.30;0.10;;;12.10;99.90;;;;;;5071217;28;20455;-92
2022/05/07 06:31:11;;;;;;;0.30;0.20;;;12.20;99.90;;;;;;5070232;28;20475;-92
2022/05/07 06:33:39;;;;;;;0.30;0.10;;;12.20;99.90;;;;;;5095107;28;20469;-92
2022/05/07 06:36:07;;;;;;;0.30;0.20;;;12.20;99.90;;;;;;5091695;28;20923;-92
2022/05/07 06:38:34;;;;;;;0.30;0.20;;;12.20;99.90;;;;;;5089047;28;20452;-92
2022/05/07 06:41:04;;;;;;;0.30;0.10;;;12.30;99.90;;;;;;5068319;28;20461;-92
2022/05/07 06:43:31;;;;;;;0.30;0.20;;;12.40;99.90;;;;;;5069202;28;21032;-92
2022/05/07 06:45:59;;;;;;;0.30;0.20;;;12.50;99.90;;;;;;5074684;28;20573;-92
2022/05/07 06:48:26;;;;;;;0.30;0.10;;;12.60;99.90;;;;;;5082105;28;21054;-92
2022/05/07 06:50:53;;;;;;;0.30;0.10;;;12.50;99.90;;;;;;5073141;28;20465;-91
2022/05/07 06:53:20;;;;;;;0.30;0.10;;;12.50;99.90;;;;;;5067407;28;20456;-92
2022/05/07 06:55:56;;;;;;;0.30;0.20;;;12.50;99.90;;;;;;5063113;28;20475;-92
2022/05/07 06:58:26;;;;;;;0.30;0.10;;;12.50;99.90;;;;;;5060595;28;20981;-92
2022/05/07 07:00:53;;;;;;;0.30;0.10;;;12.60;99.90;;;;;;5058644;28;20472;-92
2022/05/07 07:03:20;;;;;;;0.30;0.17;;;12.40;99.90;;;;;;5063268;28;20464;-92
2022/05/07 07:05:48;;;;;;;0.30;0.10;;;12.50;99.90;;;;;;5065776;28;20578;-92
2022/05/07 07:08:15;;;;;;;0.30;0.10;;;12.40;99.90;;;;;;5066872;28;20501;-92
2022/05/07 07:10:43;;;;;;;0.30;0.20;;;12.40;99.90;;;;;;5064310;28;20570;-92
2022/05/07 07:13:10;;;;;;;0.30;0.10;;;12.50;99.90;;;;;;5065090;28;20475;-92
2022/05/07 07:15:40;;;;;;;0.30;0.17;;;12.50;99.90;;;;;;5065840;28;20946;-92
2022/05/07 07:18:09;;;;;;;0.30;0.20;;;12.50;99.90;;;;;;5061618;28;21144;-92
2022/05/07 07:20:38;;;;;;;0.30;0.10;;;12.60;99.90;;;;;;5066392;28;20843;-92
2022/05/07 07:23:06;;;;;;;0.30;0.10;;;12.60;99.90;;;;;;5064697;28;20497;-92
2022/05/07 07:25:33;;;;;;;0.30;0.10;;;12.60;99.90;;;;;;5061385;28;20579;-91
2022/05/07 07:28:00;;;;;;;0.30;0.10;;;12.60;99.90;;;;;;5070397;28;20557;-93
2022/05/07 07:30:27;;;;;;;0.30;0.10;;;12.60;99.90;;;;;;5070027;28;20518;-93
2022/05/07 07:32:56;;;;;;;0.30;0.10;;;12.60;99.90;;;;;;5069745;28;20468;-92
2022/05/07 07:35:23;;;;;;;0.30;0.13;;;12.50;99.90;;;;;;5063856;28;20838;-92
2022/05/07 07:37:50;;;;;;;0.30;0.10;;;12.50;99.90;;;;;;5063764;28;20511;-92
2022/05/07 07:40:17;;;;;;;0.30;0.10;;;12.60;99.90;;;;;;5062536;28;20473;-93
2022/05/07 07:42:44;;;;;;;0.30;0.20;;;12.60;99.90;;;;;;5068934;28;20461;-93
2022/05/07 07:48:02;;;;;;;0.30;0.20;;;12.70;99.90;;;;;;5063832;28;20498;-92
2022/05/07 07:50:31;;;;;;;0.30;0.20;;;12.80;99.90;;;;;;5067398;28;20466;-93
2022/05/07 07:53:00;;;;;;;0.30;0.10;;;12.80;99.90;;;;;;5070586;28;20453;-92
2022/05/07 07:55:28;;;;;;;0.30;0.20;;;12.90;99.90;;;;;;5078693;28;20466;-93
2022/05/07 07:57:56;;;;;;;0.30;0.10;;;12.90;99.90;;;;;;5072418;28;20486;-93
2022/05/07 08:00:24;;;;;;;0.30;0.10;;;13.00;99.90;;;;;;5065593;28;21132;-92
2022/05/07 08:02:53;;;;;;;0.30;0.20;;;13.10;99.90;;;;;;5066835;28;20466;-92
2022/05/07 08:05:26;;;;;;;0.30;0.10;;;13.00;99.90;;;;;;5068995;28;20524;-92
2022/05/07 08:13:36;;;;;;;0.30;0.20;;;13.40;99.90;;;;;;5062687;28;20511;-93
2022/05/07 08:16:04;;;;;;;0.30;0.20;;;13.40;99.90;;;;;;5082628;28;20509;-93
2022/05/07 08:18:32;;;;;;;0.30;0.20;;;13.60;99.90;;;;;;5071601;28;20545;-93
2022/05/07 08:21:00;;;;;;;0.30;0.17;;;13.70;99.90;;;;;;5076333;28;20535;-94
2022/05/07 08:23:27;;;;;;;0.30;0.17;;;13.80;99.90;;;;;;5069854;28;20864;-93
2022/05/07 08:25:55;;;;;;;0.30;0.20;;;13.80;99.90;;;;;;5070181;28;20978;-94
2022/05/07 08:28:24;;;;;;;0.30;0.10;;;13.90;99.90;;;;;;5069155;28;21021;-94
2022/05/07 08:30:53;;;;;;;0.30;0.10;;;13.90;99.90;;;;;;5069159;28;20613;-94
2022/05/07 08:33:20;;;;;;;0.30;0.20;;;13.80;99.90;;;;;;5064567;28;20453;-94
2022/05/07 08:35:48;;;;;;;0.30;0.20;;;13.80;99.90;;;;;;5066404;28;20474;-93
2022/05/07 08:38:17;;;;;;;0.30;0.20;;;13.80;99.90;;;;;;5067014;28;20466;-93
2022/05/07 08:40:45;;;;;;;0.30;0.20;;;13.80;99.90;;;;;;5064523;28;20568;-93
2022/05/07 08:43:14;;;;;;;0.30;0.20;;;13.90;99.90;;;;;;5061744;28;21054;-93
2022/05/07 08:45:41;;;;;;;0.30;0.20;;;14.10;99.90;;;;;;5067043;28;20486;-93
2022/05/07 08:48:09;;;;;;;0.30;0.20;;;14.30;99.90;;;;;;5066957;28;20467;-94
2022/05/07 08:50:37;;;;;;;0.30;0.20;;;14.10;99.90;;;;;;5067797;28;20873;-93
2022/05/07 08:53:09;;;;;;;0.30;0.20;;;14.00;99.90;;;;;;5069429;28;20479;-92
2022/05/07 08:55:37;;;;;;;0.30;0.20;;;14.10;99.90;;;;;;5065981;28;20487;-92
2022/05/07 08:58:04;;;;;;;0.30;0.20;;;14.00;99.90;;;;;;5063788;28;20524;-93
2022/05/07 09:00:33;;;;;;;0.30;0.20;;;14.10;99.90;;;;;;5064741;28;20475;-91
2022/05/07 09:03:02;;;;;;;0.30;0.10;;;14.10;99.90;;;;;;5067754;28;20553;-90
2022/05/07 09:05:34;;;;;;;0.30;0.20;;;14.10;99.90;;;;;;5066493;28;20892;-91
2022/05/07 09:08:01;;;;;;;0.30;0.20;;;14.40;99.90;;;;;;5069299;28;20496;-91
2022/05/07 09:10:30;;;;;;;0.30;0.20;;;14.40;99.90;;;;;;5068582;28;20973;-94
2022/05/07 09:13:11;;;;;;;0.30;0.20;;;14.40;99.90;;;;;;5068276;28;20479;-91
2022/05/07 09:15:48;;;;;;;0.30;0.20;;;14.40;99.90;;;;;;5071071;28;20965;-92
2022/05/07 09:18:16;;;;;;;0.30;0.20;;;14.50;99.90;;;;;;5067727;28;20612;-92
2022/05/07 09:20:43;;;;;;;0.30;0.20;;;14.40;99.90;;;;;;5080502;28;20805;-91
2022/05/07 09:23:12;;;;;;;0.30;0.20;;;14.30;99.90;;;;;;5070987;28;20510;-90
2022/05/07 09:25:45;;;;;;;0.30;0.20;;;14.40;99.90;;;;;;5072859;28;20527;-91
2022/05/07 09:28:14;;;;;;;0.30;0.20;;;14.60;99.90;;;;;;5063492;28;20460;-92
2022/05/07 09:30:44;;;;;;;0.30;0.20;;;14.60;99.90;;;;;;5075805;28;20913;-92
2022/05/07 09:33:11;;;;;;;0.30;0.20;;;14.60;99.90;;;;;;5069572;28;20474;-93
2022/05/07 09:35:49;;;;;;;0.30;0.20;;;14.70;99.90;;;;;;5071085;28;21100;-92
2022/05/07 09:38:16;;;;;;;0.30;0.20;;;14.70;99.90;;;;;;5065673;28;20472;-92
2022/05/07 09:40:45;;;;;;;0.30;0.20;;;14.90;99.90;;;;;;5080822;28;20469;-93
2022/05/07 09:43:14;;;;;;;0.30;0.20;;;14.70;99.90;;;;;;5098210;28;20488;-92
2022/05/07 09:45:41;;;;;;;0.30;0.10;;;14.90;99.90;;;;;;5085277;28;20452;-92
2022/05/07 09:48:12;;;;;;;0.30;0.20;;;15.30;99.90;;;;;;5068346;28;21050;-92
2022/05/07 09:50:45;;;;;;;0.30;0.20;;;15.60;99.90;;;;;;5068362;28;20471;-91
2022/05/07 09:58:44;;;;;;;0.30;0.20;;;16.00;99.90;;;;;;5091128;28;20516;-91
2022/05/07 10:01:31;;;;;;;0.30;0.20;;;15.70;99.90;;;;;;5091299;28;20493;-91
2022/05/07 10:04:19;;;;;;;0.30;0.20;;;15.90;99.90;;;;;;5079776;28;20548;-91
2022/05/07 10:07:02;;;;;;;0.30;0.13;;;16.10;99.90;;;;;;5071457;28;20551;-91
2022/05/07 10:09:41;;;;;;;0.30;0.20;;;16.60;99.90;;;;;;5066877;28;20523;-91
2022/05/07 10:12:09;;;;;;;0.30;0.20;;;16.70;99.90;;;;;;5065938;28;20454;-91
2022/05/07 10:14:38;;;;;;;0.30;0.20;;;16.80;99.90;;;;;;5064499;28;20464;-91
2022/05/07 10:17:11;;;;;;;0.30;0.20;;;16.80;99.90;;;;;;5063358;28;20461;-91
2022/05/07 10:19:40;;;;;;;0.30;0.20;;;17.00;99.90;;;;;;5066114;28;20475;-91
2022/05/07 10:22:18;;;;;;;0.30;0.20;;;17.00;99.90;;;;;;5066947;28;20952;-92
2022/05/07 10:24:46;;;;;;;0.30;0.20;;;17.20;99.90;;;;;;5061991;28;20549;-92
2022/05/07 10:27:23;;;;;;;0.30;0.27;;;17.20;99.90;;;;;;5067183;28;20501;-92
2022/05/07 10:29:51;;;;;;;0.30;0.20;;;17.10;99.90;;;;;;5067820;28;20462;-92
2022/05/07 10:32:21;;;;;;;0.30;0.20;;;17.50;99.90;;;;;;5064054;28;20899;-90
2022/05/07 10:34:53;;;;;;;0.30;0.20;;;17.90;99.90;;;;;;5064376;28;20460;-90
2022/05/07 10:37:20;;;;;;;0.30;0.20;;;18.20;99.90;;;;;;5064737;28;20474;-91
2022/05/07 10:39:52;;;;;;;0.30;0.20;;;18.10;99.90;;;;;;5064830;28;20532;-90
2022/05/07 10:42:21;;;;;;;0.30;0.20;;;18.10;99.90;;;;;;5061190;28;20534;-90
2022/05/07 10:44:50;;;;;;;0.30;0.20;;;17.70;99.90;;;;;;5066560;28;20467;-91
2022/05/07 10:47:20;;;;;;;0.30;0.20;;;17.50;99.90;;;;;;5061933;28;20709;-90
2022/05/07 10:49:54;;;;;;;0.30;0.20;;;17.50;99.90;;;;;;5064725;28;20513;-89
2022/05/07 10:52:30;;;;;;;0.30;0.20;;;17.20;99.90;;;;;;5067680;28;20462;-89
2022/05/07 10:55:08;;;;;;;0.30;0.20;;;17.30;99.90;;;;;;5063251;28;20955;-90
2022/05/07 10:57:44;;;;;;;0.30;0.20;;;17.20;99.90;;;;;;5071876;28;20895;-89
2022/05/07 11:00:13;;;;;;;0.30;0.20;;;17.20;99.90;;;;;;5072833;28;20465;-91
2022/05/07 11:02:42;;;;;;;0.30;0.20;;;17.30;99.90;;;;;;5071228;28;20459;-89
2022/05/07 11:05:09;;;;;;;0.30;0.20;;;17.70;99.90;;;;;;5069718;28;20452;-90
2022/05/07 11:07:37;;;;;;;0.30;0.20;;;17.40;99.90;;;;;;5068430;28;20539;-92
2022/05/07 11:10:05;;;;;;;0.30;0.20;;;17.20;99.90;;;;;;5072282;28;20560;-92
2022/05/07 11:12:32;;;;;;;0.30;0.20;;;17.20;99.90;;;;;;5066410;28;20463;-92
2022/05/07 11:14:59;;;;;;;0.30;0.20;;;17.20;99.90;;;;;;5066461;28;20903;-92
2022/05/07 11:17:31;;;;;;;0.30;0.20;;;17.00;99.90;;;;;;5063902;28;20860;-92
2022/05/07 11:20:00;;;;;;;0.30;0.20;;;16.90;99.90;;;;;;5072105;28;20459;-93
2022/05/07 11:22:30;;;;;;;0.30;0.20;;;16.90;99.90;;;;;;5066044;28;20577;-91
2022/05/07 11:24:59;;;;;;;0.30;0.20;;;16.90;99.90;;;;;;5066702;28;20574;-91
2022/05/07 11:27:30;;;;;;;0.30;0.20;;;16.80;99.90;;;;;;5060014;28;20548;-92
2022/05/07 11:29:58;;;;;;;0.30;0.20;;;17.00;99.90;;;;;;5069084;28;20475;-92
2022/05/07 11:32:25;;;;;;;0.30;0.20;;;16.60;99.90;;;;;;5074694;28;20988;-92
2022/05/07 11:34:57;;;;;;;0.30;0.20;;;16.60;99.90;;;;;;5066225;28;21048;-92
2022/05/07 11:37:25;;;;;;;0.30;0.20;;;16.30;99.90;;;;;;5066689;28;20471;-91
2022/05/07 11:39:54;;;;;;;0.30;0.20;;;16.60;99.90;;;;;;5058387;28;21156;-92
2022/05/07 11:42:31;;;;;;;0.30;0.20;;;16.80;99.90;;;;;;5063323;28;20616;-92
2022/05/07 11:47:54;;;;;;;0.30;0.20;;;16.80;99.90;;;;;;5068833;28;20487;-93
2022/05/07 11:50:23;;;;;;;0.30;0.20;;;17.00;99.90;;;;;;5063829;28;21096;-91
2022/05/07 11:52:53;;;;;;;0.30;0.20;;;17.00;99.90;;;;;;5067790;28;20523;-92
2022/05/07 11:55:27;;;;;;;0.30;0.20;;;17.10;99.90;;;;;;5066490;28;20535;-92
2022/05/07 11:57:55;;;;;;;0.30;0.20;;;16.90;99.90;;;;;;5077076;28;21006;-92
2022/05/07 12:00:24;;;;;;;0.30;0.20;;;16.70;99.90;;;;;;5067064;28;21133;-91
2022/05/07 12:02:57;;;;;;;0.30;0.20;;;16.70;99.90;;;;;;5068787;28;20987;-91
2022/05/07 12:05:26;;;;;;;0.30;0.20;;;16.70;99.90;;;;;;5068192;28;20471;-91
2022/05/07 12:07:54;;;;;;;0.30;0.20;;;16.80;99.90;;;;;;5064551;28;20502;-94
2022/05/07 12:10:23;;;;;;;0.30;0.20;;;16.90;99.90;;;;;;5068661;28;20546;-96
2022/05/07 12:12:50;;;;;;;0.30;0.20;;;16.90;99.90;;;;;;5074792;28;20542;-95
2022/05/07 12:17:52;;;;;;;0.30;0.20;;;16.90;99.90;;;;;;5066741;28;20922;-93
2022/05/07 12:18:07;;;;;;;0.30;0.20;;;16.90;99.90;;;;;;5070637;28;20455;-94
2022/05/07 12:20:34;;;;;;;0.30;0.20;;;17.40;99.90;;;;;;5074561;28;20542;-94
2022/05/07 12:31:15;;;;;;;0.30;0.20;;;18.00;99.90;;;;;;5068266;28;20496;-91
2022/05/07 12:33:42;;;;;;;0.30;0.20;;;18.50;99.90;;;;;;5076249;28;20519;-90
2022/05/07 12:36:09;;;;;;;0.30;0.20;;;19.00;99.90;;;;;;5077323;28;20533;-90
2022/05/07 12:38:38;;;;;;;0.30;0.20;;;18.90;99.90;;;;;;5076728;28;20455;-90
2022/05/07 12:41:05;;;;;;;0.30;0.20;;;18.70;99.90;;;;;;5080404;28;20445;-91
2022/05/07 12:43:33;;;;;;;0.30;0.20;;;18.30;99.90;;;;;;5077725;28;21154;-90
2022/05/07 12:46:00;;;;;;;0.30;0.20;;;18.20;99.90;;;;;;5079527;28;20536;-89
2022/05/07 12:48:27;;;;;;;0.30;0.20;;;18.10;99.90;;;;;;5077032;28;20494;-90
2022/05/07 12:50:54;;;;;;;0.30;0.20;;;18.10;99.90;;;;;;5074823;28;20463;-90
2022/05/07 12:53:21;;;;;;;0.30;0.20;;;18.00;99.90;;;;;;5071918;28;20514;-90
2022/05/07 12:55:50;;;;;;;0.30;0.20;;;17.90;99.90;;;;;;5072384;28;20457;-90
2022/05/07 12:58:17;;;;;;;0.30;0.20;;;18.10;99.90;;;;;;5072225;28;20517;-90
2022/05/07 13:00:44;;;;;;;0.30;0.20;;;18.00;99.90;;;;;;5074897;28;21019;-91
2022/05/07 13:03:12;;;;;;;0.30;0.20;;;17.80;99.90;;;;;;5071203;28;20517;-91
2022/05/07 13:05:39;;;;;;;0.30;0.20;;;17.40;99.90;;;;;;5065037;28;21006;-91
2022/05/07 13:08:07;;;;;;;0.30;0.20;;;17.30;99.90;;;;;;5067721;28;20494;-91
2022/05/07 13:10:35;;;;;;;0.30;0.20;;;17.10;99.90;;;;;;5070688;28;20516;-91
2022/05/07 13:13:04;;;;;;;0.30;0.20;;;17.00;99.90;;;;;;5070072;28;20789;-91
2022/05/07 13:15:31;;;;;;;0.30;0.20;;;16.90;99.90;;;;;;5067630;28;20477;-90
2022/05/07 13:18:00;;;;;;;0.30;0.20;;;16.80;99.90;;;;;;5067959;28;20788;-90
2022/05/07 13:20:27;;;;;;;0.30;0.20;;;17.00;99.90;;;;;;5071687;28;20546;-90
2022/05/07 13:22:55;;;;;;;0.30;0.20;;;17.10;99.90;;;;;;5083753;28;20531;-90
2022/05/07 13:25:23;;;;;;;0.30;0.20;;;17.10;99.90;;;;;;5099413;28;20443;-90
2022/05/07 13:27:50;;;;;;;0.30;0.20;;;17.10;99.90;;;;;;5077228;28;20572;-90
2022/05/07 13:30:20;;;;;;;0.30;0.20;;;16.90;99.90;;;;;;5070807;28;20876;-90
2022/05/07 13:32:48;;;;;;;0.30;0.20;;;16.90;99.90;;;;;;5080428;28;20467;-90
2022/05/07 13:35:17;;;;;;;0.30;0.20;;;16.80;99.90;;;;;;5075144;28;20471;-92